createdAt,value
2017-05-09T00:00:25.185Z,1015.79
2017-05-09T00:01:34.138Z,1015.85
2017-05-09T00:02:43.414Z,1015.84
2017-05-09T00:03:52.367Z,1015.87
2017-05-09T00:05:01.413Z,1015.86
2017-05-09T00:06:10.987Z,1015.87
2017-05-09T00:07:19.941Z,1015.85
2017-05-09T00:08:28.978Z,1015.84
2017-05-09T00:09:37.931Z,1015.84
2017-05-09T00:10:46.891Z,1015.8
2017-05-09T00:11:56.143Z,1015.81
2017-05-09T00:13:05.102Z,1015.79
2017-05-09T00:14:14.058Z,1015.78
2017-05-09T00:15:23.018Z,1015.79
2017-05-09T00:16:31.981Z,1015.81
2017-05-09T00:17:41.320Z,1015.8
2017-05-09T00:18:50.274Z,1015.77
2017-05-09T00:19:59.225Z,1015.8
2017-05-09T00:21:08.177Z,1015.8
2017-05-09T00:22:17.229Z,1015.77
2017-05-09T00:23:26.516Z,1015.74
2017-05-09T00:24:35.469Z,1015.7
2017-05-09T00:25:44.427Z,1015.74
2017-05-09T00:26:53.385Z,1015.68
2017-05-09T00:28:02.330Z,1015.69
2017-05-09T00:29:11.581Z,1015.69
2017-05-09T00:30:20.860Z,1015.68
2017-05-09T00:31:29.818Z,1015.66
2017-05-09T00:32:38.776Z,1015.66
2017-05-09T00:33:47.735Z,1015.64
2017-05-09T00:34:56.939Z,1015.66
2017-05-09T00:36:05.893Z,1015.64
2017-05-09T00:37:14.847Z,1015.61
2017-05-09T00:38:23.837Z,1015.61
2017-05-09T00:39:32.876Z,1015.6
2017-05-09T00:40:42.129Z,1015.58
2017-05-09T00:41:51.083Z,1015.59
2017-05-09T00:43:00.041Z,1015.59
2017-05-09T00:44:08.991Z,1015.64
2017-05-09T00:45:18.024Z,1015.63
2017-05-09T00:46:27.272Z,1015.6
2017-05-09T00:47:36.223Z,1015.62
2017-05-09T00:48:45.179Z,1015.66
2017-05-09T00:49:54.219Z,1015.65
2017-05-09T00:51:03.578Z,1015.65
2017-05-09T00:52:12.924Z,1015.63
2017-05-09T00:53:21.963Z,1015.67
2017-05-09T00:54:31.013Z,1015.66
2017-05-09T00:55:39.969Z,1015.65
2017-05-09T00:56:48.920Z,1015.65
2017-05-09T00:57:58.180Z,1015.67
2017-05-09T00:59:07.144Z,1015.64
2017-05-09T01:00:16.103Z,1015.69
2017-05-09T01:01:25.052Z,1015.66
2017-05-09T01:02:34.002Z,1015.6
2017-05-09T01:03:43.202Z,1015.65
2017-05-09T01:04:52.148Z,1015.69
2017-05-09T01:06:01.097Z,1015.7
2017-05-09T01:07:10.051Z,1015.73
2017-05-09T01:08:19.007Z,1015.73
2017-05-09T01:09:28.262Z,1015.68
2017-05-09T01:10:37.231Z,1015.65
2017-05-09T01:11:46.185Z,1015.63
2017-05-09T01:12:55.137Z,1015.62
2017-05-09T01:14:04.196Z,1015.6
2017-05-09T01:15:13.451Z,1015.6
2017-05-09T01:16:22.401Z,1015.6
2017-05-09T01:17:31.351Z,1015.59
2017-05-09T01:18:40.312Z,1015.6
2017-05-09T01:19:49.268Z,1015.55
2017-05-09T01:20:58.522Z,1015.56
2017-05-09T01:22:07.473Z,1015.57
2017-05-09T01:23:16.423Z,1015.52
2017-05-09T01:24:25.550Z,1015.54
2017-05-09T01:25:34.504Z,1015.54
2017-05-09T01:26:43.761Z,1015.51
2017-05-09T01:27:52.708Z,1015.5
2017-05-09T01:29:01.660Z,1015.49
2017-05-09T01:30:10.616Z,1015.52
2017-05-09T01:31:19.566Z,1015.52
2017-05-09T01:32:28.819Z,1015.53
2017-05-09T01:33:37.769Z,1015.57
2017-05-09T01:34:46.770Z,1015.55
2017-05-09T01:35:55.807Z,1015.53
2017-05-09T01:37:04.761Z,1015.51
2017-05-09T01:38:14.019Z,1015.56
2017-05-09T01:39:23.298Z,1015.56
2017-05-09T01:40:32.254Z,1015.59
2017-05-09T01:41:41.212Z,1015.53
2017-05-09T01:42:50.162Z,1015.54
2017-05-09T01:43:59.694Z,1015.55
2017-05-09T01:45:08.653Z,1015.53
2017-05-09T01:46:17.692Z,1015.54
2017-05-09T01:47:26.648Z,1015.57
2017-05-09T01:48:35.604Z,1015.56
2017-05-09T01:49:44.857Z,1015.55
2017-05-09T01:50:53.813Z,1015.51
2017-05-09T01:52:02.852Z,1015.51
2017-05-09T01:53:11.811Z,1015.5
2017-05-09T01:54:20.792Z,1015.55
2017-05-09T01:55:29.994Z,1015.55
2017-05-09T01:56:38.950Z,1015.57
2017-05-09T01:57:47.987Z,1015.54
2017-05-09T01:58:57.030Z,1015.49
2017-05-09T02:00:06.073Z,1015.47
2017-05-09T02:01:15.328Z,1015.46
2017-05-09T02:02:24.314Z,1015.46
2017-05-09T02:03:33.271Z,1015.45
2017-05-09T02:04:42.231Z,1015.46
2017-05-09T02:05:51.270Z,1015.44
2017-05-09T02:07:00.476Z,1015.45
2017-05-09T02:08:09.429Z,1015.49
2017-05-09T02:09:18.385Z,1015.43
2017-05-09T02:10:27.333Z,1015.45
2017-05-09T02:11:36.289Z,1015.46
2017-05-09T02:12:45.490Z,1015.45
2017-05-09T02:13:54.444Z,1015.43
2017-05-09T02:15:03.401Z,1015.44
2017-05-09T02:16:12.358Z,1015.48
2017-05-09T02:17:21.349Z,1015.49
2017-05-09T02:18:30.608Z,1015.49
2017-05-09T02:19:39.562Z,1015.47
2017-05-09T02:20:48.514Z,1015.44
2017-05-09T02:21:57.466Z,1015.47
2017-05-09T02:23:06.427Z,1015.47
2017-05-09T02:24:15.694Z,1015.48
2017-05-09T02:25:24.660Z,1015.49
2017-05-09T02:26:33.622Z,1015.52
2017-05-09T02:27:42.578Z,1015.51
2017-05-09T02:28:51.531Z,1015.48
2017-05-09T02:30:00.876Z,1015.47
2017-05-09T02:31:09.834Z,1015.47
2017-05-09T02:32:18.794Z,1015.5
2017-05-09T02:33:27.746Z,1015.53
2017-05-09T02:34:36.695Z,1015.53
2017-05-09T02:35:45.949Z,1015.5
2017-05-09T02:36:54.907Z,1015.45
2017-05-09T02:38:03.860Z,1015.43
2017-05-09T02:39:13.139Z,1015.48
2017-05-09T02:40:22.099Z,1015.48
2017-05-09T02:41:31.352Z,1015.46
2017-05-09T02:42:40.295Z,1015.47
2017-05-09T02:43:49.339Z,1015.45
2017-05-09T02:44:58.298Z,1015.41
2017-05-09T02:46:07.247Z,1015.45
2017-05-09T02:47:16.451Z,1015.46
2017-05-09T02:48:25.496Z,1015.4
2017-05-09T02:49:34.456Z,1015.43
2017-05-09T02:50:43.407Z,1015.4
2017-05-09T02:51:52.359Z,1015.4
2017-05-09T02:53:01.613Z,1015.38
2017-05-09T02:54:10.655Z,1015.42
2017-05-09T02:55:19.610Z,1015.4
2017-05-09T02:56:28.648Z,1015.38
2017-05-09T02:57:37.592Z,1015.38
2017-05-09T02:58:46.846Z,1015.3
2017-05-09T02:59:55.801Z,1015.31
2017-05-09T03:01:04.758Z,1015.26
2017-05-09T03:02:13.709Z,1015.29
2017-05-09T03:03:22.702Z,1015.3
2017-05-09T03:04:32.086Z,1015.32
2017-05-09T03:05:41.038Z,1015.33
2017-05-09T03:06:49.993Z,1015.29
2017-05-09T03:07:58.945Z,1015.31
2017-05-09T03:09:07.902Z,1015.24
2017-05-09T03:11:41.245Z,1015.27
2017-05-09T03:12:50.196Z,1015.29
2017-05-09T03:13:59.155Z,1015.3
2017-05-09T03:15:08.112Z,1015.28
2017-05-09T03:16:17.309Z,1015.29
2017-05-09T03:17:26.265Z,1015.3
2017-05-09T03:18:35.218Z,1015.25
2017-05-09T03:19:44.173Z,1015.28
2017-05-09T03:20:53.131Z,1015.25
2017-05-09T03:22:02.382Z,1015.31
2017-05-09T03:23:11.338Z,1015.24
2017-05-09T03:24:20.294Z,1015.26
2017-05-09T03:25:29.573Z,1015.28
2017-05-09T03:26:38.530Z,1015.27
2017-05-09T03:27:47.733Z,1015.28
2017-05-09T03:28:56.690Z,1015.32
2017-05-09T03:30:05.677Z,1015.29
2017-05-09T03:31:14.627Z,1015.3
2017-05-09T03:32:23.581Z,1015.29
2017-05-09T03:33:32.781Z,1015.33
2017-05-09T03:34:41.735Z,1015.29
2017-05-09T03:35:50.688Z,1015.28
2017-05-09T03:36:59.645Z,1015.27
2017-05-09T03:38:08.606Z,1015.26
2017-05-09T03:39:17.832Z,1015.25
2017-05-09T03:40:26.790Z,1015.23
2017-05-09T03:41:35.920Z,1015.24
2017-05-09T03:42:44.872Z,1015.2
2017-05-09T03:43:53.830Z,1015.2
2017-05-09T03:45:03.117Z,1015.19
2017-05-09T03:46:12.069Z,1015.2
2017-05-09T03:47:21.019Z,1015.21
2017-05-09T03:48:30.056Z,1015.23
2017-05-09T03:49:39.031Z,1015.21
2017-05-09T03:50:48.560Z,1015.23
2017-05-09T03:51:57.509Z,1015.22
2017-05-09T03:53:06.461Z,1015.2
2017-05-09T03:54:15.420Z,1015.2
2017-05-09T03:55:24.379Z,1015.23
2017-05-09T03:56:33.672Z,1015.22
2017-05-09T03:57:42.741Z,1015.26
2017-05-09T03:58:51.701Z,1015.22
2017-05-09T04:00:00.653Z,1015.19
2017-05-09T04:01:09.609Z,1015.24
2017-05-09T04:02:18.863Z,1015.2
2017-05-09T04:03:27.829Z,1015.22
2017-05-09T04:04:36.877Z,1015.24
2017-05-09T04:05:45.844Z,1015.25
2017-05-09T04:06:54.800Z,1015.22
2017-05-09T04:08:04.013Z,1015.23
2017-05-09T04:09:13.057Z,1015.22
2017-05-09T04:10:22.004Z,1015.19
2017-05-09T04:11:30.960Z,1015.22
2017-05-09T04:12:39.910Z,1015.23
2017-05-09T04:13:49.109Z,1015.23
2017-05-09T04:14:58.075Z,1015.25
2017-05-09T04:16:07.027Z,1015.25
2017-05-09T04:17:16.305Z,1015.23
2017-05-09T04:18:25.256Z,1015.25
2017-05-09T04:19:34.474Z,1015.23
2017-05-09T04:20:43.423Z,1015.22
2017-05-09T04:21:52.384Z,1015.25
2017-05-09T04:23:01.370Z,1015.21
2017-05-09T04:24:10.325Z,1015.17
2017-05-09T04:25:19.708Z,1015.19
2017-05-09T04:26:28.666Z,1015.21
2017-05-09T04:27:37.616Z,1015.21
2017-05-09T04:28:46.569Z,1015.17
2017-05-09T04:29:55.613Z,1015.19
2017-05-09T04:31:04.819Z,1015.14
2017-05-09T04:32:13.859Z,1015.12
2017-05-09T04:33:22.812Z,1015.12
2017-05-09T04:34:31.777Z,1015.16
2017-05-09T04:35:40.727Z,1015.2
2017-05-09T04:36:49.924Z,1015.19
2017-05-09T04:37:58.881Z,1015.21
2017-05-09T04:39:07.835Z,1015.22
2017-05-09T04:40:16.792Z,1015.21
2017-05-09T04:41:25.748Z,1015.21
2017-05-09T04:42:34.954Z,1015.23
2017-05-09T04:43:44.248Z,1015.23
2017-05-09T04:44:53.206Z,1015.22
2017-05-09T04:46:02.244Z,1015.24
2017-05-09T04:47:11.197Z,1015.24
2017-05-09T04:48:20.397Z,1015.21
2017-05-09T04:49:29.359Z,1015.22
2017-05-09T04:50:38.310Z,1015.25
2017-05-09T04:51:47.348Z,1015.27
2017-05-09T04:52:56.312Z,1015.27
2017-05-09T04:54:05.518Z,1015.22
2017-05-09T04:55:14.463Z,1015.22
2017-05-09T04:56:23.417Z,1015.24
2017-05-09T04:57:32.375Z,1015.22
2017-05-09T04:58:41.337Z,1015.22
2017-05-09T04:59:50.879Z,1015.22
2017-05-09T05:00:59.834Z,1015.23
2017-05-09T05:02:08.790Z,1015.2
2017-05-09T05:03:17.740Z,1015.21
2017-05-09T05:04:26.696Z,1015.2
2017-05-09T05:05:35.897Z,1015.19
2017-05-09T05:06:44.942Z,1015.23
2017-05-09T05:07:53.891Z,1015.19
2017-05-09T05:09:02.845Z,1015.23
2017-05-09T05:10:11.795Z,1015.24
2017-05-09T05:11:20.997Z,1015.22
2017-05-09T05:12:29.956Z,1015.24
2017-05-09T05:13:38.908Z,1015.25
2017-05-09T05:14:48.187Z,1015.26
2017-05-09T05:15:57.145Z,1015.22
2017-05-09T05:17:06.347Z,1015.23
2017-05-09T05:18:15.300Z,1015.22
2017-05-09T05:19:24.254Z,1015.24
2017-05-09T05:20:33.456Z,1015.27
2017-05-09T05:21:42.596Z,1015.24
2017-05-09T05:22:51.797Z,1015.22
2017-05-09T05:24:01.646Z,1015.2
2017-05-09T05:25:10.637Z,1015.19
2017-05-09T05:26:19.591Z,1015.17
2017-05-09T05:27:28.541Z,1015.17
2017-05-09T05:28:37.758Z,1015.16
2017-05-09T05:29:46.800Z,1015.19
2017-05-09T05:30:55.750Z,1015.18
2017-05-09T05:32:04.790Z,1015.16
2017-05-09T05:33:13.746Z,1015.11
2017-05-09T05:34:22.948Z,1015.15
2017-05-09T05:35:31.906Z,1015.18
2017-05-09T05:36:40.859Z,1015.14
2017-05-09T05:37:49.913Z,1015.14
2017-05-09T05:38:58.974Z,1015.16
2017-05-09T05:40:08.181Z,1015.16
2017-05-09T05:41:17.243Z,1015.16
2017-05-09T05:42:26.317Z,1015.14
2017-05-09T05:43:35.715Z,1015.09
2017-05-09T05:44:44.715Z,1015.09
2017-05-09T05:45:53.973Z,1015.1
2017-05-09T05:47:03.165Z,1015.09
2017-05-09T05:48:12.121Z,1015.08
2017-05-09T05:49:21.195Z,1015.08
2017-05-09T05:50:30.264Z,1015.08
2017-05-09T05:51:40.255Z,1015.1
2017-05-09T05:52:49.239Z,1015.05
2017-05-09T05:53:58.280Z,1015.04
2017-05-09T05:55:07.482Z,1015.01
2017-05-09T05:56:16.434Z,1015.04
2017-05-09T05:57:25.649Z,1015.03
2017-05-09T05:58:34.690Z,1015.04
2017-05-09T05:59:43.978Z,1015.05
2017-05-09T06:00:52.933Z,1015
2017-05-09T06:02:01.947Z,1014.98
2017-05-09T06:03:11.197Z,1015
2017-05-09T06:04:20.150Z,1015
2017-05-09T06:05:29.185Z,1015.03
2017-05-09T06:06:38.159Z,1014.99
2017-05-09T06:07:47.355Z,1015
2017-05-09T06:08:57.119Z,1014.97
2017-05-09T06:10:06.295Z,1014.96
2017-05-09T06:11:15.424Z,1014.95
2017-05-09T06:12:24.502Z,1014.96
2017-05-09T06:13:33.659Z,1014.95
2017-05-09T06:14:43.187Z,1014.96
2017-05-09T06:15:52.219Z,1014.96
2017-05-09T06:17:01.373Z,1015
2017-05-09T06:18:10.512Z,1014.99
2017-05-09T06:19:19.617Z,1014.96
2017-05-09T06:20:28.877Z,1015
2017-05-09T06:21:38.152Z,1015.02
2017-05-09T06:22:47.194Z,1014.99
2017-05-09T06:23:56.155Z,1014.96
2017-05-09T06:25:05.113Z,1015.01
2017-05-09T06:26:14.316Z,1014.98
2017-05-09T06:27:23.280Z,1014.94
2017-05-09T06:28:32.234Z,1014.94
2017-05-09T06:29:41.188Z,1014.96
2017-05-09T06:30:50.146Z,1014.96
2017-05-09T06:31:59.401Z,1015.01
2017-05-09T06:33:08.381Z,1014.99
2017-05-09T06:34:17.659Z,1014.98
2017-05-09T06:35:26.615Z,1014.97
2017-05-09T06:36:35.606Z,1015
2017-05-09T06:37:44.865Z,1014.95
2017-05-09T06:38:53.909Z,1014.93
2017-05-09T06:40:02.864Z,1014.95
2017-05-09T06:41:11.820Z,1014.91
2017-05-09T06:42:21.096Z,1014.93
2017-05-09T06:43:30.350Z,1014.91
2017-05-09T06:44:39.304Z,1014.95
2017-05-09T06:45:48.594Z,1014.96
2017-05-09T06:46:57.559Z,1014.97
2017-05-09T06:48:06.508Z,1014.98
2017-05-09T06:49:16.104Z,1014.96
2017-05-09T06:50:25.065Z,1014.97
2017-05-09T06:51:34.113Z,1014.99
2017-05-09T06:52:43.209Z,1014.99
2017-05-09T06:53:52.195Z,1015.02
2017-05-09T06:55:01.564Z,1015.01
2017-05-09T06:56:10.543Z,1015.01
2017-05-09T06:57:19.522Z,1015
2017-05-09T06:58:28.495Z,1014.99
2017-05-09T06:59:37.478Z,1014.98
2017-05-09T07:00:46.838Z,1015
2017-05-09T07:01:55.817Z,1014.97
2017-05-09T07:03:04.792Z,1014.97
2017-05-09T07:04:13.767Z,1014.95
2017-05-09T07:05:22.746Z,1014.89
2017-05-09T07:06:32.107Z,1014.96
2017-05-09T07:07:41.061Z,1014.9
2017-05-09T07:08:50.018Z,1014.93
2017-05-09T07:09:58.978Z,1014.87
2017-05-09T07:11:07.935Z,1014.91
2017-05-09T07:12:17.462Z,1014.88
2017-05-09T07:13:26.419Z,1014.91
2017-05-09T07:14:35.377Z,1014.89
2017-05-09T07:15:44.367Z,1014.9
2017-05-09T07:16:53.319Z,1014.92
2017-05-09T07:18:02.852Z,1014.92
2017-05-09T07:19:11.821Z,1014.89
2017-05-09T07:20:20.779Z,1014.91
2017-05-09T07:21:29.783Z,1014.9
2017-05-09T07:22:38.822Z,1014.94
2017-05-09T07:23:48.844Z,1014.87
2017-05-09T07:24:57.810Z,1014.86
2017-05-09T07:26:06.779Z,1014.8
2017-05-09T07:27:15.822Z,1014.8
2017-05-09T07:28:24.777Z,1014.79
2017-05-09T07:29:33.981Z,1014.79
2017-05-09T07:30:42.940Z,1014.76
2017-05-09T07:31:51.953Z,1014.77
2017-05-09T07:33:00.912Z,1014.79
2017-05-09T07:34:09.951Z,1014.75
2017-05-09T07:35:19.160Z,1014.8
2017-05-09T07:36:28.121Z,1014.76
2017-05-09T07:37:37.080Z,1014.7
2017-05-09T07:38:46.042Z,1014.75
2017-05-09T07:39:55.001Z,1014.68
2017-05-09T07:41:04.215Z,1014.67
2017-05-09T07:42:13.186Z,1014.67
2017-05-09T07:43:22.467Z,1014.64
2017-05-09T07:44:31.465Z,1014.62
2017-05-09T07:45:40.431Z,1014.64
2017-05-09T07:46:49.774Z,1014.6
2017-05-09T07:47:58.822Z,1014.63
2017-05-09T07:49:07.814Z,1014.61
2017-05-09T07:50:16.774Z,1014.57
2017-05-09T07:51:25.730Z,1014.53
2017-05-09T07:52:34.987Z,1014.62
2017-05-09T07:53:43.956Z,1014.63
2017-05-09T07:54:52.916Z,1014.58
2017-05-09T07:56:01.965Z,1014.56
2017-05-09T07:57:10.925Z,1014.59
2017-05-09T07:58:20.262Z,1014.6
2017-05-09T07:59:29.303Z,1014.6
2017-05-09T08:00:38.262Z,1014.58
2017-05-09T08:01:47.310Z,1014.55
2017-05-09T08:02:56.265Z,1014.49
2017-05-09T08:04:05.518Z,1014.5
2017-05-09T08:05:14.481Z,1014.51
2017-05-09T08:06:23.437Z,1014.49
2017-05-09T08:07:32.394Z,1014.46
2017-05-09T08:08:41.354Z,1014.45
2017-05-09T08:09:50.606Z,1014.44
2017-05-09T08:10:59.576Z,1014.45
2017-05-09T08:12:08.528Z,1014.43
2017-05-09T08:13:17.568Z,1014.47
2017-05-09T08:14:26.534Z,1014.45
2017-05-09T08:15:35.786Z,1014.44
2017-05-09T08:16:44.753Z,1014.45
2017-05-09T08:17:53.793Z,1014.43
2017-05-09T08:19:02.757Z,1014.46
2017-05-09T08:20:11.718Z,1014.42
2017-05-09T08:21:20.991Z,1014.51
2017-05-09T08:22:29.954Z,1014.51
2017-05-09T08:23:38.917Z,1014.54
2017-05-09T08:24:47.963Z,1014.51
2017-05-09T08:25:56.921Z,1014.5
2017-05-09T08:27:06.126Z,1014.53
2017-05-09T08:28:15.083Z,1014.54
2017-05-09T08:29:24.171Z,1014.54
2017-05-09T08:30:33.127Z,1014.5
2017-05-09T08:31:42.165Z,1014.4
2017-05-09T08:32:51.508Z,1014.49
2017-05-09T08:34:00.467Z,1014.5
2017-05-09T08:35:09.599Z,1014.42
2017-05-09T08:36:18.639Z,1014.44
2017-05-09T08:37:27.594Z,1014.43
2017-05-09T08:38:36.854Z,1014.43
2017-05-09T08:39:45.810Z,1014.47
2017-05-09T08:40:54.762Z,1014.39
2017-05-09T08:42:03.808Z,1014.53
2017-05-09T08:43:12.764Z,1014.4
2017-05-09T08:44:22.024Z,1014.39
2017-05-09T08:45:30.993Z,1014.46
2017-05-09T08:46:39.957Z,1014.44
2017-05-09T08:47:48.914Z,1014.3
2017-05-09T08:48:57.960Z,1014.33
2017-05-09T08:50:07.215Z,1014.36
2017-05-09T08:51:16.258Z,1014.38
2017-05-09T08:52:25.220Z,1014.33
2017-05-09T08:53:34.180Z,1014.27
2017-05-09T08:54:43.139Z,1014.22
2017-05-09T08:55:52.435Z,1014.2
2017-05-09T08:57:01.393Z,1014.2
2017-05-09T08:58:10.432Z,1014.17
2017-05-09T08:59:19.564Z,1014.21
2017-05-09T09:00:28.520Z,1014.18
2017-05-09T09:01:37.777Z,1014.17
2017-05-09T09:02:46.735Z,1014.13
2017-05-09T09:03:55.691Z,1014.15
2017-05-09T09:05:04.654Z,1014.14
2017-05-09T09:06:13.612Z,1014.2
2017-05-09T09:07:22.867Z,1014.17
2017-05-09T09:08:31.999Z,1014.27
2017-05-09T09:09:40.950Z,1014.32
2017-05-09T09:10:49.901Z,1014.34
2017-05-09T09:11:59.191Z,1014.4
2017-05-09T09:13:08.452Z,1014.38
2017-05-09T09:14:17.412Z,1014.38
2017-05-09T09:15:26.368Z,1014.39
2017-05-09T09:16:35.322Z,1014.37
2017-05-09T09:17:44.275Z,1014.33
2017-05-09T09:18:53.537Z,1014.28
2017-05-09T09:20:02.495Z,1014.28
2017-05-09T09:21:11.461Z,1014.29
2017-05-09T09:22:20.416Z,1014.26
2017-05-09T09:23:29.371Z,1014.21
2017-05-09T09:24:38.625Z,1014.23
2017-05-09T09:25:47.580Z,1014.16
2017-05-09T09:26:56.534Z,1014.22
2017-05-09T09:28:05.490Z,1014.19
2017-05-09T09:29:14.444Z,1014.16
2017-05-09T09:30:23.703Z,1014.14
2017-05-09T09:31:32.650Z,1014.15
2017-05-09T09:32:41.605Z,1014.11
2017-05-09T09:33:50.570Z,1014.12
2017-05-09T09:34:59.850Z,1014.14
2017-05-09T09:36:09.203Z,1014.1
2017-05-09T09:37:18.251Z,1014.1
2017-05-09T09:38:27.290Z,1014.11
2017-05-09T09:39:36.333Z,1014.02
2017-05-09T09:40:45.297Z,1014.03
2017-05-09T09:41:54.924Z,1014.01
2017-05-09T09:43:03.880Z,1014.11
2017-05-09T09:44:12.919Z,1014.06
2017-05-09T09:45:21.871Z,1014.04
2017-05-09T09:46:30.835Z,1014.08
2017-05-09T09:47:40.096Z,1014.04
2017-05-09T09:48:49.137Z,1014.01
2017-05-09T09:49:58.412Z,1014.07
2017-05-09T09:51:07.371Z,1014.03
2017-05-09T09:52:16.329Z,1014.03
2017-05-09T09:53:25.588Z,1013.99
2017-05-09T09:54:34.542Z,1013.95
2017-05-09T09:55:43.586Z,1013.95
2017-05-09T09:56:52.536Z,1013.94
2017-05-09T09:58:01.485Z,1013.93
2017-05-09T09:59:11.065Z,1013.92
2017-05-09T10:00:20.023Z,1013.93
2017-05-09T10:01:28.988Z,1013.84
2017-05-09T10:02:37.942Z,1013.87
2017-05-09T10:03:46.989Z,1013.87
2017-05-09T10:04:56.244Z,1013.92
2017-05-09T10:06:05.287Z,1013.9
2017-05-09T10:07:14.246Z,1013.81
2017-05-09T10:08:23.201Z,1013.88
2017-05-09T10:09:32.156Z,1013.84
2017-05-09T10:10:41.424Z,1013.87
2017-05-09T10:11:50.710Z,1013.79
2017-05-09T10:12:59.697Z,1013.84
2017-05-09T10:14:08.650Z,1013.75
2017-05-09T10:15:17.614Z,1013.72
2017-05-09T10:16:26.871Z,1013.67
2017-05-09T10:17:35.827Z,1013.78
2017-05-09T10:18:44.788Z,1013.76
2017-05-09T10:19:53.837Z,1013.81
2017-05-09T10:21:02.877Z,1013.77
2017-05-09T10:22:12.228Z,1013.71
2017-05-09T10:23:21.276Z,1013.72
2017-05-09T10:24:30.231Z,1013.63
2017-05-09T10:25:39.192Z,1013.65
2017-05-09T10:26:48.152Z,1013.62
2017-05-09T10:27:57.409Z,1013.64
2017-05-09T10:29:06.367Z,1013.58
2017-05-09T10:30:15.325Z,1013.62
2017-05-09T10:31:24.366Z,1013.54
2017-05-09T10:32:33.653Z,1013.61
2017-05-09T10:33:42.917Z,1013.61
2017-05-09T10:34:51.959Z,1013.66
2017-05-09T10:36:00.915Z,1013.69
2017-05-09T10:37:09.873Z,1013.65
2017-05-09T10:38:18.833Z,1013.67
2017-05-09T10:39:28.172Z,1013.66
2017-05-09T10:40:37.137Z,1013.65
2017-05-09T10:41:46.091Z,1013.59
2017-05-09T10:42:55.045Z,1013.6
2017-05-09T10:44:04.001Z,1013.62
2017-05-09T10:45:13.530Z,1013.61
2017-05-09T10:46:22.485Z,1013.67
2017-05-09T10:47:31.445Z,1013.67
2017-05-09T10:48:40.402Z,1013.7
2017-05-09T10:49:49.356Z,1013.69
2017-05-09T10:50:58.611Z,1013.69
2017-05-09T10:52:07.570Z,1013.7
2017-05-09T10:53:16.615Z,1013.73
2017-05-09T10:54:25.612Z,1013.68
2017-05-09T10:55:34.575Z,1013.77
2017-05-09T10:56:43.831Z,1013.75
2017-05-09T10:57:52.787Z,1013.73
2017-05-09T10:59:01.739Z,1013.73
2017-05-09T11:00:11.022Z,1013.72
2017-05-09T11:01:20.063Z,1013.73
2017-05-09T11:02:29.321Z,1013.75
2017-05-09T11:03:38.281Z,1013.72
2017-05-09T11:04:47.238Z,1013.67
2017-05-09T11:05:56.191Z,1013.77
2017-05-09T11:07:05.151Z,1013.73
2017-05-09T11:08:14.359Z,1013.73
2017-05-09T11:09:23.403Z,1013.74
2017-05-09T11:10:32.358Z,1013.72
2017-05-09T11:11:41.309Z,1013.7
2017-05-09T11:12:50.263Z,1013.74
2017-05-09T11:13:59.471Z,1013.74
2017-05-09T11:15:08.427Z,1013.78
2017-05-09T11:16:17.380Z,1013.81
2017-05-09T11:17:26.334Z,1013.82
2017-05-09T11:18:35.293Z,1013.83
2017-05-09T11:19:44.548Z,1013.89
2017-05-09T11:20:53.502Z,1013.97
2017-05-09T11:22:02.459Z,1013.88
2017-05-09T11:23:11.459Z,1013.97
2017-05-09T11:24:20.411Z,1014
2017-05-09T11:25:29.670Z,1014.02
2017-05-09T11:26:38.630Z,1014.07
2017-05-09T11:27:47.582Z,1014.13
2017-05-09T11:28:56.619Z,1014.13
2017-05-09T11:30:05.573Z,1014.16
2017-05-09T11:31:14.830Z,1014.13
2017-05-09T11:32:23.783Z,1014.18
2017-05-09T11:33:32.764Z,1014.19
2017-05-09T11:34:41.721Z,1014.16
2017-05-09T11:35:50.675Z,1014.11
2017-05-09T11:36:59.933Z,1014.17
2017-05-09T11:38:08.890Z,1014.12
2017-05-09T11:39:17.846Z,1014.06
2017-05-09T11:40:26.801Z,1014.05
2017-05-09T11:41:35.752Z,1014.07
2017-05-09T11:42:45.005Z,1014.05
2017-05-09T11:43:53.958Z,1014.04
2017-05-09T11:45:02.907Z,1014.06
2017-05-09T11:46:11.950Z,1014.09
2017-05-09T11:47:20.902Z,1014.04
2017-05-09T11:48:30.154Z,1013.99
2017-05-09T11:49:39.110Z,1013.96
2017-05-09T11:50:48.062Z,1013.9
2017-05-09T11:51:57.352Z,1013.85
2017-05-09T11:53:06.638Z,1013.77
2017-05-09T11:54:15.894Z,1013.7
2017-05-09T11:55:24.848Z,1013.6
2017-05-09T11:56:33.886Z,1013.64
2017-05-09T11:57:42.838Z,1013.67
2017-05-09T11:58:51.789Z,1013.61
2017-05-09T12:00:01.137Z,1013.63
2017-05-09T12:01:10.089Z,1013.6
2017-05-09T12:02:19.042Z,1013.57
2017-05-09T12:03:27.994Z,1013.54
2017-05-09T12:04:36.952Z,1013.55
2017-05-09T12:05:46.160Z,1013.56
2017-05-09T12:06:55.116Z,1013.56
2017-05-09T12:08:04.077Z,1013.5
2017-05-09T12:09:13.033Z,1013.5
2017-05-09T12:10:22.070Z,1013.52
2017-05-09T12:11:31.414Z,1013.5
2017-05-09T12:12:40.370Z,1013.49
2017-05-09T12:13:49.325Z,1013.49
2017-05-09T12:14:58.275Z,1013.47
2017-05-09T12:16:07.228Z,1013.45
2017-05-09T12:17:16.439Z,1013.41
2017-05-09T12:18:25.390Z,1013.42
2017-05-09T12:19:34.348Z,1013.34
2017-05-09T12:20:43.302Z,1013.35
2017-05-09T12:21:52.582Z,1013.35
2017-05-09T12:23:01.785Z,1013.32
2017-05-09T12:24:10.741Z,1013.26
2017-05-09T12:25:19.781Z,1013.28
2017-05-09T12:26:28.820Z,1013.26
2017-05-09T12:27:37.775Z,1013.22
2017-05-09T12:28:46.980Z,1013.19
2017-05-09T12:29:55.943Z,1013.19
2017-05-09T12:31:04.892Z,1013.16
2017-05-09T12:32:13.845Z,1013.19
2017-05-09T12:33:22.797Z,1013.16
2017-05-09T12:34:32.052Z,1013.14
2017-05-09T12:35:41.038Z,1013.11
2017-05-09T12:36:50.074Z,1013.12
2017-05-09T12:37:59.027Z,1013.11
2017-05-09T12:39:07.990Z,1013.13
2017-05-09T12:40:17.241Z,1013.1
2017-05-09T12:41:26.195Z,1013.1
2017-05-09T12:42:35.153Z,1013.08
2017-05-09T12:43:44.113Z,1013.08
2017-05-09T12:44:53.094Z,1013.05
2017-05-09T12:46:02.351Z,1013.06
2017-05-09T12:47:11.340Z,1013.02
2017-05-09T12:48:20.292Z,1013.04
2017-05-09T12:49:29.244Z,1012.95
2017-05-09T12:50:38.194Z,1013.01
2017-05-09T12:51:47.447Z,1012.97
2017-05-09T12:52:56.409Z,1012.97
2017-05-09T12:54:05.367Z,1013.04
2017-05-09T12:55:14.317Z,1012.99
2017-05-09T12:56:23.268Z,1013.01
2017-05-09T12:57:32.527Z,1013.03
2017-05-09T12:58:41.482Z,1012.99
2017-05-09T12:59:50.434Z,1012.99
2017-05-09T13:00:59.389Z,1013.02
2017-05-09T13:02:08.339Z,1012.97
2017-05-09T13:03:17.958Z,1012.97
2017-05-09T13:04:26.916Z,1012.94
2017-05-09T13:05:35.868Z,1012.96
2017-05-09T13:06:44.819Z,1012.95
2017-05-09T13:07:53.775Z,1012.94
2017-05-09T13:09:03.029Z,1012.91
2017-05-09T13:10:11.979Z,1012.93
2017-05-09T13:11:20.933Z,1012.93
2017-05-09T13:12:29.883Z,1012.91
2017-05-09T13:13:38.870Z,1012.89
2017-05-09T13:14:48.085Z,1012.87
2017-05-09T13:15:57.039Z,1012.84
2017-05-09T13:17:05.996Z,1012.82
2017-05-09T13:18:14.946Z,1012.86
2017-05-09T13:19:23.895Z,1012.82
2017-05-09T13:20:33.155Z,1012.84
2017-05-09T13:21:42.195Z,1012.81
2017-05-09T13:22:51.151Z,1012.81
2017-05-09T13:24:00.101Z,1012.8
2017-05-09T13:25:09.053Z,1012.8
2017-05-09T13:26:18.312Z,1012.8
2017-05-09T13:27:27.273Z,1012.78
2017-05-09T13:28:36.230Z,1012.8
2017-05-09T13:29:45.181Z,1012.81
2017-05-09T13:30:54.142Z,1012.76
2017-05-09T13:32:03.393Z,1012.77
2017-05-09T13:33:12.374Z,1012.78
2017-05-09T13:34:21.327Z,1012.76
2017-05-09T13:35:30.282Z,1012.82
2017-05-09T13:36:39.560Z,1012.76
2017-05-09T13:37:48.817Z,1012.86
2017-05-09T13:38:57.770Z,1012.85
2017-05-09T13:40:06.724Z,1012.82
2017-05-09T13:41:15.772Z,1012.86
2017-05-09T13:42:24.724Z,1012.81
2017-05-09T13:43:33.936Z,1012.78
2017-05-09T13:44:42.896Z,1012.78
2017-05-09T13:45:51.947Z,1012.75
2017-05-09T13:47:00.896Z,1012.67
2017-05-09T13:48:09.848Z,1012.67
2017-05-09T13:49:19.105Z,1012.67
2017-05-09T13:50:28.059Z,1012.6
2017-05-09T13:51:37.107Z,1012.63
2017-05-09T13:52:46.066Z,1012.57
2017-05-09T13:53:55.666Z,1012.55
2017-05-09T13:55:05.014Z,1012.53
2017-05-09T13:56:14.016Z,1012.54
2017-05-09T13:57:22.975Z,1012.53
2017-05-09T13:58:31.976Z,1012.51
2017-05-09T13:59:40.930Z,1012.49
2017-05-09T14:00:50.283Z,1012.47